Joshua — FO4549 — position and weather

sailwx.info

Track history (hours):
 
Tides and Currents Weather Stations Pressure Air Temp Water Temp Dewpoint Dewpoint Depression Visibility Wind Speed Wind Dir Waves Ship Positions

Joshua

Last reported at 2018-May-21 10:56 UTC. Time now 2018-May-21 11:17 UTC.
Position N 44°26' W 001°51'.

Length 12 m.

Type: Sailing vessel. MMSI: 227524140.

Date/timePositionNaut miles runAvg speedWind from/ knotsBaromVisibWave heightAir tempDewpointWater temp
2018-May-21 10:56N 44°26' W 001°51'4 3.3
2018-May-21 09:39N 44°22' W 001°51'1 3.4
2018-May-21 09:28N 44°21' W 001°52'2 3.5
2018-May-21 08:57N 44°20' W 001°52'2 3.6
2018-May-21 08:26N 44°18' W 001°52'2 3.8
2018-May-21 07:58N 44°16' W 001°52'2 3.7
2018-May-21 07:30N 44°14' W 001°53'2 3.7
2018-May-21 07:00N 44°12' W 001°53'2 4.0
2018-May-21 06:30N 44°10' W 001°53'2 4.1
2018-May-21 06:00N 44°08' W 001°54'2 4.5
2018-May-21 05:30N 44°06' W 001°54'2 4.6
2018-May-21 05:00N 44°04' W 001°55'2 4.5
2018-May-21 04:29N 44°02' W 001°55'2 4.7
2018-May-21 04:00N 43°59' W 001°56'2 4.4
2018-May-21 03:29N 43°57' W 001°56'2 4.1
2018-May-21 03:00N 43°55' W 001°56'2 4.6
2018-May-21 02:30N 43°53' W 001°57'2 4.6
2018-May-21 02:00N 43°51' W 001°57'2 4.4
2018-May-21 01:30N 43°48' W 001°57'2 4.2
2018-May-21 01:00N 43°46' W 001°57'2 3.7
2018-May-21 00:30N 43°44' W 001°57'2 3.1
2018-May-21 00:00N 43°43' W 001°57'2 3.6
2018-May-20 23:30N 43°41' W 001°57'2 3.9
2018-May-20 23:00N 43°39' W 001°57'2 4.0
2018-May-20 22:30N 43°37' W 001°58'2 3.8
2018-May-20 22:00N 43°35' W 001°58'2 4.0
2018-May-20 21:30N 43°33' W 001°58'2 4.2
2018-May-20 21:00N 43°31' W 001°58'2 4.1
2018-May-20 20:30N 43°29' W 001°58'2 4.0
2018-May-20 19:59N 43°27' W 001°58'2 3.3
2018-May-20 19:30N 43°25' W 001°58'1 1.8
2018-May-20 18:59N 43°25' W 001°59'1 2.0
2018-May-20 18:30N 43°24' W 001°59'1 2.3
2018-May-20 18:00N 43°23' W 001°59'1 2.4
2018-May-20 17:30N 43°21' W 001°60'1 2.6
2018-May-20 16:57N 43°20' W 001°60'1 1.6
2018-May-20 16:30N 43°19' W 001°59'0 0.7
2018-May-20 15:59N 43°19' W 001°60'2 4.5
2018-May-20 15:29N 43°21' W 001°57'  
2018-May-17 16:58N 43°20' W 001°56'0 0.0
2018-May-17 15:44N 43°20' W 001°56'1 3.1
2018-May-17 15:30N 43°21' W 001°56'1 2.6
2018-May-17 15:00N 43°21' W 001°58'1 2.5
2018-May-17 14:30N 43°20' W 001°59'2 3.3
2018-May-17 14:00N 43°20' W 002°01'1 1.7
2018-May-17 13:30N 43°20' W 002°00'0 0.5
2018-May-17 13:00N 43°19' W 001°60'2 3.4
2018-May-17 12:30N 43°21' W 001°59'2 3.9
2018-May-17 11:58N 43°22' W 001°56'2 3.7
2018-May-17 11:30N 43°22' W 001°54'2 3.5
2018-May-17 10:59N 43°23' W 001°52'2 3.4
2018-May-17 10:30N 43°24' W 001°50'2 3.6
2018-May-17 10:00N 43°24' W 001°47'2 3.6
2018-May-17 09:28N 43°24' W 001°45'1 2.0
2018-May-17 08:59N 43°24' W 001°43'1 1.9
2018-May-17 08:30N 43°24' W 001°42'1 1.9
2018-May-17 08:00N 43°24' W 001°41'1 0.0
2018-May-15 08:04N 43°24' W 001°40'0 0.6
2018-May-15 07:51N 43°24' W 001°41'2 4.9
2018-May-15 07:30N 43°25' W 001°42'3 5.0
2018-May-15 07:00N 43°27' W 001°43'3 4.4
2018-May-15 06:22N 43°30' W 001°42'2 4.5
2018-May-15 05:52N 43°32' W 001°41'2 4.5
2018-May-15 05:29N 43°34' W 001°40'1 1.5
2018-May-15 04:33N 43°35' W 001°40'0 1.6
2018-May-15 04:28N 43°35' W 001°41'1 1.7
2018-May-15 03:59N 43°34' W 001°41'1 1.5
2018-May-15 03:30N 43°34' W 001°42'3 3.7
2018-May-15 02:47N 43°36' W 001°42'2 5.1
2018-May-15 02:22N 43°38' W 001°42'2 5.1
2018-May-15 01:56N 43°41' W 001°42'54 5.4
2018-May-14 15:55N 44°34' W 001°32'4 6.4
2018-May-14 15:15N 44°38' W 001°30'2 6.8
2018-May-14 15:00N 44°40' W 001°29'3 6.9
2018-May-14 14:30N 44°43' W 001°27'3 6.6
2018-May-14 14:00N 44°46' W 001°26'76 4.2
2018-May-13 19:38N 46°02' W 001°32'1 7.2
2018-May-13 19:30N 46°03' W 001°32'3 5.5
2018-May-13 19:00N 46°06' W 001°30'2 4.9
2018-May-13 18:30N 46°07' W 001°27'2 4.5
2018-May-13 18:00N 46°08' W 001°24'2 4.2
2018-May-13 17:30N 46°06' W 001°23'2 4.4
2018-May-13 17:00N 46°07' W 001°20'2 3.0
2018-May-13 16:30N 46°07' W 001°18'2 3.7
2018-May-13 16:00N 46°05' W 001°17'1 2.0
2018-May-13 15:30N 46°05' W 001°15'2 3.5
2018-May-13 15:00N 46°06' W 001°14'2 4.7
2018-May-13 14:30N 46°08' W 001°12'1 2.8
2018-May-13 14:00N 46°09' W 001°10'0 0.3
2018-May-13 13:30N 46°09' W 001°10'0 0.1
2018-May-13 12:59N 46°09' W 001°10'1 1.5
2018-May-13 12:30N 46°09' W 001°09'0 0.0
2018-May-13 12:00N 46°09' W 001°09'  
Track history (hours):
 
Tides and Currents Weather Stations Pressure Air Temp Water Temp Dewpoint Dewpoint Depression Visibility Wind Speed Wind Dir Waves Ship Positions

Joshua

Last reported at 2018-May-21 10:56 UTC. Time now 2018-May-21 11:17 UTC.
Position N 44°26' W 001°51'.

Length 12 m.

Type: Sailing vessel. MMSI: 227524140.

Date/timePositionNaut miles runAvg speedWind from/ knotsBaromVisibWave heightAir tempDewpointWater temp
2018-May-21 10:56N 44°26' W 001°51'4 3.3
2018-May-21 09:39N 44°22' W 001°51'1 3.4
2018-May-21 09:28N 44°21' W 001°52'2 3.5
2018-May-21 08:57N 44°20' W 001°52'2 3.6
2018-May-21 08:26N 44°18' W 001°52'2 3.8
2018-May-21 07:58N 44°16' W 001°52'2 3.7
2018-May-21 07:30N 44°14' W 001°53'2 3.7
2018-May-21 07:00N 44°12' W 001°53'2 4.0
2018-May-21 06:30N 44°10' W 001°53'2 4.1
2018-May-21 06:00N 44°08' W 001°54'2 4.5
2018-May-21 05:30N 44°06' W 001°54'2 4.6
2018-May-21 05:00N 44°04' W 001°55'2 4.5
2018-May-21 04:29N 44°02' W 001°55'2 4.7
2018-May-21 04:00N 43°59' W 001°56'2 4.4
2018-May-21 03:29N 43°57' W 001°56'2 4.1
2018-May-21 03:00N 43°55' W 001°56'2 4.6
2018-May-21 02:30N 43°53' W 001°57'2 4.6
2018-May-21 02:00N 43°51' W 001°57'2 4.4
2018-May-21 01:30N 43°48' W 001°57'2 4.2
2018-May-21 01:00N 43°46' W 001°57'2 3.7
2018-May-21 00:30N 43°44' W 001°57'2 3.1
2018-May-21 00:00N 43°43' W 001°57'2 3.6
2018-May-20 23:30N 43°41' W 001°57'2 3.9
2018-May-20 23:00N 43°39' W 001°57'2 4.0
2018-May-20 22:30N 43°37' W 001°58'2 3.8
2018-May-20 22:00N 43°35' W 001°58'2 4.0
2018-May-20 21:30N 43°33' W 001°58'2 4.2
2018-May-20 21:00N 43°31' W 001°58'2 4.1
2018-May-20 20:30N 43°29' W 001°58'2 4.0
2018-May-20 19:59N 43°27' W 001°58'2 3.3
2018-May-20 19:30N 43°25' W 001°58'1 1.8
2018-May-20 18:59N 43°25' W 001°59'1 2.0
2018-May-20 18:30N 43°24' W 001°59'1 2.3
2018-May-20 18:00N 43°23' W 001°59'1 2.4
2018-May-20 17:30N 43°21' W 001°60'1 2.6
2018-May-20 16:57N 43°20' W 001°60'1 1.6
2018-May-20 16:30N 43°19' W 001°59'0 0.7
2018-May-20 15:59N 43°19' W 001°60'2 4.5
2018-May-20 15:29N 43°21' W 001°57'  
2018-May-17 16:58N 43°20' W 001°56'0 0.0
2018-May-17 15:44N 43°20' W 001°56'1 3.1
2018-May-17 15:30N 43°21' W 001°56'1 2.6
2018-May-17 15:00N 43°21' W 001°58'1 2.5
2018-May-17 14:30N 43°20' W 001°59'2 3.3
2018-May-17 14:00N 43°20' W 002°01'1 1.7
2018-May-17 13:30N 43°20' W 002°00'0 0.5
2018-May-17 13:00N 43°19' W 001°60'2 3.4
2018-May-17 12:30N 43°21' W 001°59'2 3.9
2018-May-17 11:58N 43°22' W 001°56'2 3.7
2018-May-17 11:30N 43°22' W 001°54'2 3.5
2018-May-17 10:59N 43°23' W 001°52'2 3.4
2018-May-17 10:30N 43°24' W 001°50'2 3.6
2018-May-17 10:00N 43°24' W 001°47'2 3.6
2018-May-17 09:28N 43°24' W 001°45'1 2.0
2018-May-17 08:59N 43°24' W 001°43'1 1.9
2018-May-17 08:30N 43°24' W 001°42'1 1.9
2018-May-17 08:00N 43°24' W 001°41'1 0.0
2018-May-15 08:04N 43°24' W 001°40'0 0.6
2018-May-15 07:51N 43°24' W 001°41'2 4.9
2018-May-15 07:30N 43°25' W 001°42'3 5.0
2018-May-15 07:00N 43°27' W 001°43'3 4.4
2018-May-15 06:22N 43°30' W 001°42'2 4.5
2018-May-15 05:52N 43°32' W 001°41'2 4.5
2018-May-15 05:29N 43°34' W 001°40'1 1.5
2018-May-15 04:33N 43°35' W 001°40'0 1.6
2018-May-15 04:28N 43°35' W 001°41'1 1.7
2018-May-15 03:59N 43°34' W 001°41'1 1.5
2018-May-15 03:30N 43°34' W 001°42'3 3.7
2018-May-15 02:47N 43°36' W 001°42'2 5.1
2018-May-15 02:22N 43°38' W 001°42'2 5.1
2018-May-15 01:56N 43°41' W 001°42'54 5.4
2018-May-14 15:55N 44°34' W 001°32'4 6.4
2018-May-14 15:15N 44°38' W 001°30'2 6.8
2018-May-14 15:00N 44°40' W 001°29'3 6.9
2018-May-14 14:30N 44°43' W 001°27'3 6.6
2018-May-14 14:00N 44°46' W 001°26'76 4.2
2018-May-13 19:38N 46°02' W 001°32'1 7.2
2018-May-13 19:30N 46°03' W 001°32'3 5.5
2018-May-13 19:00N 46°06' W 001°30'2 4.9
2018-May-13 18:30N 46°07' W 001°27'2 4.5
2018-May-13 18:00N 46°08' W 001°24'2 4.2
2018-May-13 17:30N 46°06' W 001°23'2 4.4
2018-May-13 17:00N 46°07' W 001°20'2 3.0
2018-May-13 16:30N 46°07' W 001°18'2 3.7
2018-May-13 16:00N 46°05' W 001°17'1 2.0
2018-May-13 15:30N 46°05' W 001°15'2 3.5
2018-May-13 15:00N 46°06' W 001°14'2 4.7
2018-May-13 14:30N 46°08' W 001°12'1 2.8
2018-May-13 14:00N 46°09' W 001°10'0 0.3
2018-May-13 13:30N 46°09' W 001°10'0 0.1
2018-May-13 12:59N 46°09' W 001°10'1 1.5
2018-May-13 12:30N 46°09' W 001°09'0 0.0
2018-May-13 12:00N 46°09' W 001°09'  

Dump ship's entire track history